sensor_id;sensor_type;location;lat;lon;timestamp;P1;durP1;ratioP1;P2;durP2;ratioP2
29200;SDS011;16244;51.956;12.980;2023-12-20T00:01:04;5.10;;;4.70;;
29200;SDS011;16244;51.956;12.980;2023-12-20T00:03:31;4.27;;;3.87;;
29200;SDS011;16244;51.956;12.980;2023-12-20T00:05:59;4.50;;;4.27;;
29200;SDS011;16244;51.956;12.980;2023-12-20T00:08:26;4.70;;;3.60;;
29200;SDS011;16244;51.956;12.980;2023-12-20T00:10:55;4.30;;;4.00;;
29200;SDS011;16244;51.956;12.980;2023-12-20T00:13:22;4.33;;;4.03;;
29200;SDS011;16244;51.956;12.980;2023-12-20T00:15:49;5.93;;;5.33;;
29200;SDS011;16244;51.956;12.980;2023-12-20T00:18:17;5.83;;;5.33;;
29200;SDS011;16244;51.956;12.980;2023-12-20T00:20:44;10.50;;;4.97;;
29200;SDS011;16244;51.956;12.980;2023-12-20T00:23:12;5.27;;;4.87;;
29200;SDS011;16244;51.956;12.980;2023-12-20T00:25:39;6.10;;;4.67;;
29200;SDS011;16244;51.956;12.980;2023-12-20T00:28:08;4.93;;;4.53;;
29200;SDS011;16244;51.956;12.980;2023-12-20T00:30:35;5.03;;;4.63;;
29200;SDS011;16244;51.956;12.980;2023-12-20T00:33:03;5.23;;;4.87;;
29200;SDS011;16244;51.956;12.980;2023-12-20T00:35:31;5.10;;;4.60;;
29200;SDS011;16244;51.956;12.980;2023-12-20T00:37:58;5.93;;;5.40;;
29200;SDS011;16244;51.956;12.980;2023-12-20T00:40:26;5.43;;;4.97;;
29200;SDS011;16244;51.956;12.980;2023-12-20T00:42:53;4.70;;;4.40;;
29200;SDS011;16244;51.956;12.980;2023-12-20T00:45:22;7.00;;;6.17;;
29200;SDS011;16244;51.956;12.980;2023-12-20T00:47:49;4.97;;;4.70;;
29200;SDS011;16244;51.956;12.980;2023-12-20T00:50:17;4.87;;;4.57;;
29200;SDS011;16244;51.956;12.980;2023-12-20T00:52:44;5.27;;;4.93;;
29200;SDS011;16244;51.956;12.980;2023-12-20T00:55:12;3.97;;;3.77;;
29200;SDS011;16244;51.956;12.980;2023-12-20T00:57:39;5.40;;;4.90;;
29200;SDS011;16244;51.956;12.980;2023-12-20T01:00:07;5.60;;;5.10;;
29200;SDS011;16244;51.956;12.980;2023-12-20T01:02:37;5.37;;;4.47;;
29200;SDS011;16244;51.956;12.980;2023-12-20T01:05:05;4.57;;;4.27;;
29200;SDS011;16244;51.956;12.980;2023-12-20T01:07:35;5.37;;;4.57;;
29200;SDS011;16244;51.956;12.980;2023-12-20T01:10:02;5.13;;;4.83;;
29200;SDS011;16244;51.956;12.980;2023-12-20T01:12:30;5.43;;;4.37;;
29200;SDS011;16244;51.956;12.980;2023-12-20T01:14:57;4.50;;;4.10;;
29200;SDS011;16244;51.956;12.980;2023-12-20T01:17:25;5.30;;;4.90;;
29200;SDS011;16244;51.956;12.980;2023-12-20T01:19:54;4.93;;;4.53;;
29200;SDS011;16244;51.956;12.980;2023-12-20T01:22:21;4.30;;;4.20;;
29200;SDS011;16244;51.956;12.980;2023-12-20T01:24:49;4.70;;;4.07;;
29200;SDS011;16244;51.956;12.980;2023-12-20T01:27:16;4.70;;;4.30;;
29200;SDS011;16244;51.956;12.980;2023-12-20T01:29:49;4.33;;;4.10;;
29200;SDS011;16244;51.956;12.980;2023-12-20T01:32:17;5.00;;;4.60;;
29200;SDS011;16244;51.956;12.980;2023-12-20T01:34:44;3.90;;;3.70;;
29200;SDS011;16244;51.956;12.980;2023-12-20T01:37:13;4.03;;;3.83;;
29200;SDS011;16244;51.956;12.980;2023-12-20T01:39:40;4.60;;;4.30;;
29200;SDS011;16244;51.956;12.980;2023-12-20T01:42:08;4.57;;;4.27;;
29200;SDS011;16244;51.956;12.980;2023-12-20T01:44:35;4.10;;;3.77;;
29200;SDS011;16244;51.956;12.980;2023-12-20T01:47:03;4.40;;;4.03;;
29200;SDS011;16244;51.956;12.980;2023-12-20T01:49:31;3.90;;;3.70;;
29200;SDS011;16244;51.956;12.980;2023-12-20T01:51:58;3.77;;;3.67;;
29200;SDS011;16244;51.956;12.980;2023-12-20T01:54:27;4.53;;;4.13;;
29200;SDS011;16244;51.956;12.980;2023-12-20T01:56:55;5.40;;;5.00;;
29200;SDS011;16244;51.956;12.980;2023-12-20T01:59:22;4.90;;;4.50;;
29200;SDS011;16244;51.956;12.980;2023-12-20T02:01:50;4.10;;;3.93;;
29200;SDS011;16244;51.956;12.980;2023-12-20T02:04:18;5.70;;;5.30;;
29200;SDS011;16244;51.956;12.980;2023-12-20T02:06:45;3.47;;;3.30;;
29200;SDS011;16244;51.956;12.980;2023-12-20T02:09:13;4.30;;;4.10;;
29200;SDS011;16244;51.956;12.980;2023-12-20T02:11:43;4.93;;;4.43;;
29200;SDS011;16244;51.956;12.980;2023-12-20T02:14:11;4.40;;;4.20;;
29200;SDS011;16244;51.956;12.980;2023-12-20T02:16:39;4.90;;;4.60;;
29200;SDS011;16244;51.956;12.980;2023-12-20T02:19:09;3.87;;;3.60;;
29200;SDS011;16244;51.956;12.980;2023-12-20T02:21:42;4.60;;;4.23;;
29200;SDS011;16244;51.956;12.980;2023-12-20T02:24:09;5.07;;;4.67;;
29200;SDS011;16244;51.956;12.980;2023-12-20T02:26:37;6.00;;;5.50;;
29200;SDS011;16244;51.956;12.980;2023-12-20T02:29:05;5.10;;;4.70;;
29200;SDS011;16244;51.956;12.980;2023-12-20T02:31:32;4.53;;;4.33;;
29200;SDS011;16244;51.956;12.980;2023-12-20T02:34:00;4.67;;;4.37;;
29200;SDS011;16244;51.956;12.980;2023-12-20T02:36:27;4.30;;;3.80;;
29200;SDS011;16244;51.956;12.980;2023-12-20T02:38:56;5.30;;;4.87;;
29200;SDS011;16244;51.956;12.980;2023-12-20T02:41:23;4.03;;;3.73;;
29200;SDS011;16244;51.956;12.980;2023-12-20T02:43:51;5.03;;;4.53;;
29200;SDS011;16244;51.956;12.980;2023-12-20T02:46:18;4.67;;;4.27;;
29200;SDS011;16244;51.956;12.980;2023-12-20T02:48:46;4.63;;;4.17;;
29200;SDS011;16244;51.956;12.980;2023-12-20T02:51:13;6.33;;;5.47;;
29200;SDS011;16244;51.956;12.980;2023-12-20T02:53:41;3.73;;;3.53;;
29200;SDS011;16244;51.956;12.980;2023-12-20T02:56:10;5.07;;;4.60;;
29200;SDS011;16244;51.956;12.980;2023-12-20T02:58:37;4.70;;;4.40;;
29200;SDS011;16244;51.956;12.980;2023-12-20T03:01:05;4.50;;;4.20;;
29200;SDS011;16244;51.956;12.980;2023-12-20T03:03:32;8.27;;;4.90;;
29200;SDS011;16244;51.956;12.980;2023-12-20T03:06:00;4.70;;;4.33;;
29200;SDS011;16244;51.956;12.980;2023-12-20T03:08:27;4.93;;;4.63;;
29200;SDS011;16244;51.956;12.980;2023-12-20T03:10:55;5.87;;;5.30;;
29200;SDS011;16244;51.956;12.980;2023-12-20T03:13:23;6.00;;;5.40;;
29200;SDS011;16244;51.956;12.980;2023-12-20T03:15:51;5.40;;;4.50;;
29200;SDS011;16244;51.956;12.980;2023-12-20T03:18:18;5.27;;;4.80;;
29200;SDS011;16244;51.956;12.980;2023-12-20T03:20:46;5.83;;;5.27;;
29200;SDS011;16244;51.956;12.980;2023-12-20T03:23:15;4.77;;;4.37;;
29200;SDS011;16244;51.956;12.980;2023-12-20T03:25:43;6.23;;;4.57;;
29200;SDS011;16244;51.956;12.980;2023-12-20T03:28:10;5.37;;;5.00;;
29200;SDS011;16244;51.956;12.980;2023-12-20T03:30:39;4.03;;;3.83;;
29200;SDS011;16244;51.956;12.980;2023-12-20T03:33:06;7.27;;;5.13;;
29200;SDS011;16244;51.956;12.980;2023-12-20T03:35:34;6.10;;;4.57;;
29200;SDS011;16244;51.956;12.980;2023-12-20T03:38:02;4.63;;;4.23;;
29200;SDS011;16244;51.956;12.980;2023-12-20T03:40:30;4.43;;;3.70;;
29200;SDS011;16244;51.956;12.980;2023-12-20T03:42:57;3.70;;;3.40;;
29200;SDS011;16244;51.956;12.980;2023-12-20T03:45:25;4.17;;;3.87;;
29200;SDS011;16244;51.956;12.980;2023-12-20T03:47:53;3.33;;;3.13;;
29200;SDS011;16244;51.956;12.980;2023-12-20T03:50:22;5.60;;;4.10;;
29200;SDS011;16244;51.956;12.980;2023-12-20T03:52:50;4.10;;;3.90;;
29200;SDS011;16244;51.956;12.980;2023-12-20T03:55:17;3.57;;;3.30;;
29200;SDS011;16244;51.956;12.980;2023-12-20T03:57:45;3.17;;;3.07;;
29200;SDS011;16244;51.956;12.980;2023-12-20T04:00:12;3.67;;;3.37;;
29200;SDS011;16244;51.956;12.980;2023-12-20T04:02:41;3.73;;;3.53;;
29200;SDS011;16244;51.956;12.980;2023-12-20T04:05:10;4.00;;;2.53;;
29200;SDS011;16244;51.956;12.980;2023-12-20T04:07:38;5.20;;;3.40;;
29200;SDS011;16244;51.956;12.980;2023-12-20T04:10:06;2.17;;;2.17;;
29200;SDS011;16244;51.956;12.980;2023-12-20T04:12:34;3.80;;;3.50;;
29200;SDS011;16244;51.956;12.980;2023-12-20T04:15:02;3.00;;;2.90;;
29200;SDS011;16244;51.956;12.980;2023-12-20T04:17:35;3.40;;;3.13;;
29200;SDS011;16244;51.956;12.980;2023-12-20T04:20:03;2.60;;;2.43;;
29200;SDS011;16244;51.956;12.980;2023-12-20T04:22:33;2.07;;;1.97;;
29200;SDS011;16244;51.956;12.980;2023-12-20T04:25:00;2.70;;;2.60;;
29200;SDS011;16244;51.956;12.980;2023-12-20T04:27:28;1.97;;;1.87;;
29200;SDS011;16244;51.956;12.980;2023-12-20T04:29:56;1.97;;;1.87;;
29200;SDS011;16244;51.956;12.980;2023-12-20T04:32:23;1.53;;;1.53;;
29200;SDS011;16244;51.956;12.980;2023-12-20T04:34:51;3.33;;;1.10;;
29200;SDS011;16244;51.956;12.980;2023-12-20T04:37:18;1.33;;;1.20;;
29200;SDS011;16244;51.956;12.980;2023-12-20T04:39:47;1.53;;;1.30;;
29200;SDS011;16244;51.956;12.980;2023-12-20T04:42:14;0.90;;;0.90;;
29200;SDS011;16244;51.956;12.980;2023-12-20T04:44:42;1.50;;;1.50;;
29200;SDS011;16244;51.956;12.980;2023-12-20T04:47:10;1.10;;;1.00;;
29200;SDS011;16244;51.956;12.980;2023-12-20T04:49:38;2.20;;;0.90;;
29200;SDS011;16244;51.956;12.980;2023-12-20T04:52:05;0.80;;;0.80;;
29200;SDS011;16244;51.956;12.980;2023-12-20T04:54:32;0.80;;;0.80;;
29200;SDS011;16244;51.956;12.980;2023-12-20T04:57:02;1.37;;;1.20;;
29200;SDS011;16244;51.956;12.980;2023-12-20T04:59:30;1.10;;;1.10;;
29200;SDS011;16244;51.956;12.980;2023-12-20T05:01:57;1.57;;;1.10;;
29200;SDS011;16244;51.956;12.980;2023-12-20T05:04:25;1.20;;;1.20;;
29200;SDS011;16244;51.956;12.980;2023-12-20T05:06:52;1.33;;;1.33;;
29200;SDS011;16244;51.956;12.980;2023-12-20T05:09:20;1.03;;;1.03;;
29200;SDS011;16244;51.956;12.980;2023-12-20T05:11:47;2.10;;;1.27;;
29200;SDS011;16244;51.956;12.980;2023-12-20T05:14:16;7.43;;;1.30;;
29200;SDS011;16244;51.956;12.980;2023-12-20T05:16:43;3.43;;;1.17;;
29200;SDS011;16244;51.956;12.980;2023-12-20T05:19:11;3.13;;;0.87;;
29200;SDS011;16244;51.956;12.980;2023-12-20T05:21:38;2.80;;;0.80;;
29200;SDS011;16244;51.956;12.980;2023-12-20T05:24:06;2.30;;;1.20;;
29200;SDS011;16244;51.956;12.980;2023-12-20T05:26:33;0.80;;;0.80;;
29200;SDS011;16244;51.956;12.980;2023-12-20T05:29:01;1.90;;;1.40;;
29200;SDS011;16244;51.956;12.980;2023-12-20T05:31:30;4.77;;;1.37;;
29200;SDS011;16244;51.956;12.980;2023-12-20T05:33:58;1.10;;;1.10;;
29200;SDS011;16244;51.956;12.980;2023-12-20T05:36:25;0.80;;;0.80;;
29200;SDS011;16244;51.956;12.980;2023-12-20T05:38:53;2.20;;;0.90;;
29200;SDS011;16244;51.956;12.980;2023-12-20T05:41:20;1.10;;;1.10;;
29200;SDS011;16244;51.956;12.980;2023-12-20T05:43:48;3.00;;;1.30;;
29200;SDS011;16244;51.956;12.980;2023-12-20T05:46:16;7.83;;;1.27;;
29200;SDS011;16244;51.956;12.980;2023-12-20T05:48:45;6.53;;;0.90;;
29200;SDS011;16244;51.956;12.980;2023-12-20T05:51:12;1.93;;;1.30;;
29200;SDS011;16244;51.956;12.980;2023-12-20T05:53:40;5.27;;;1.40;;
29200;SDS011;16244;51.956;12.980;2023-12-20T05:56:07;3.03;;;1.00;;
29200;SDS011;16244;51.956;12.980;2023-12-20T05:58:35;1.53;;;1.23;;
29200;SDS011;16244;51.956;12.980;2023-12-20T06:01:03;3.03;;;2.00;;
29200;SDS011;16244;51.956;12.980;2023-12-20T06:03:31;3.17;;;0.97;;
29200;SDS011;16244;51.956;12.980;2023-12-20T06:06:00;3.03;;;0.80;;
29200;SDS011;16244;51.956;12.980;2023-12-20T06:08:32;4.10;;;1.20;;
29200;SDS011;16244;51.956;12.980;2023-12-20T06:11:00;2.40;;;1.47;;
29200;SDS011;16244;51.956;12.980;2023-12-20T06:13:27;2.07;;;0.90;;
29200;SDS011;16244;51.956;12.980;2023-12-20T06:15:54;6.63;;;1.33;;
29200;SDS011;16244;51.956;12.980;2023-12-20T06:18:22;1.87;;;0.80;;
29200;SDS011;16244;51.956;12.980;2023-12-20T06:20:50;3.03;;;0.97;;
29200;SDS011;16244;51.956;12.980;2023-12-20T06:23:19;2.90;;;1.00;;
29200;SDS011;16244;51.956;12.980;2023-12-20T06:25:46;4.33;;;1.00;;
29200;SDS011;16244;51.956;12.980;2023-12-20T06:28:14;8.43;;;0.93;;
29200;SDS011;16244;51.956;12.980;2023-12-20T06:30:41;5.10;;;0.80;;
29200;SDS011;16244;51.956;12.980;2023-12-20T06:33:09;0.63;;;0.63;;
29200;SDS011;16244;51.956;12.980;2023-12-20T06:35:37;4.03;;;0.50;;
29200;SDS011;16244;51.956;12.980;2023-12-20T06:38:04;1.27;;;0.60;;
29200;SDS011;16244;51.956;12.980;2023-12-20T06:40:33;10.73;;;0.60;;
29200;SDS011;16244;51.956;12.980;2023-12-20T06:43:01;4.33;;;0.60;;
29200;SDS011;16244;51.956;12.980;2023-12-20T06:45:28;2.10;;;0.80;;
29200;SDS011;16244;51.956;12.980;2023-12-20T06:47:55;1.53;;;1.03;;
29200;SDS011;16244;51.956;12.980;2023-12-20T06:50:23;5.60;;;0.80;;
29200;SDS011;16244;51.956;12.980;2023-12-20T06:52:50;3.17;;;2.17;;
29200;SDS011;16244;51.956;12.980;2023-12-20T06:55:18;3.20;;;2.80;;
29200;SDS011;16244;51.956;12.980;2023-12-20T06:57:47;4.23;;;3.33;;
29200;SDS011;16244;51.956;12.980;2023-12-20T07:00:15;6.10;;;1.57;;
29200;SDS011;16244;51.956;12.980;2023-12-20T07:02:43;1.07;;;1.00;;
29200;SDS011;16244;51.956;12.980;2023-12-20T07:05:11;1.67;;;1.10;;
29200;SDS011;16244;51.956;12.980;2023-12-20T07:07:38;5.00;;;1.47;;
29200;SDS011;16244;51.956;12.980;2023-12-20T07:10:06;6.47;;;1.30;;
29200;SDS011;16244;51.956;12.980;2023-12-20T07:12:35;6.47;;;1.97;;
29200;SDS011;16244;51.956;12.980;2023-12-20T07:15:05;4.13;;;1.37;;
29200;SDS011;16244;51.956;12.980;2023-12-20T07:17:33;7.67;;;1.97;;
29200;SDS011;16244;51.956;12.980;2023-12-20T07:20:01;4.50;;;2.10;;
29200;SDS011;16244;51.956;12.980;2023-12-20T07:22:29;12.03;;;3.97;;
29200;SDS011;16244;51.956;12.980;2023-12-20T07:24:58;4.27;;;2.87;;
29200;SDS011;16244;51.956;12.980;2023-12-20T07:27:25;5.50;;;3.63;;
29200;SDS011;16244;51.956;12.980;2023-12-20T07:29:53;8.80;;;3.17;;
29200;SDS011;16244;51.956;12.980;2023-12-20T07:32:21;4.17;;;3.87;;
29200;SDS011;16244;51.956;12.980;2023-12-20T07:34:49;3.20;;;2.87;;
29200;SDS011;16244;51.956;12.980;2023-12-20T07:37:16;3.63;;;2.40;;
29200;SDS011;16244;51.956;12.980;2023-12-20T07:39:44;4.40;;;2.83;;
29200;SDS011;16244;51.956;12.980;2023-12-20T07:42:11;3.60;;;2.83;;
29200;SDS011;16244;51.956;12.980;2023-12-20T07:44:39;5.93;;;3.10;;
29200;SDS011;16244;51.956;12.980;2023-12-20T07:47:07;7.37;;;2.90;;
29200;SDS011;16244;51.956;12.980;2023-12-20T07:49:35;4.20;;;3.33;;
29200;SDS011;16244;51.956;12.980;2023-12-20T07:52:02;4.87;;;2.87;;
29200;SDS011;16244;51.956;12.980;2023-12-20T07:54:30;11.00;;;3.50;;
29200;SDS011;16244;51.956;12.980;2023-12-20T07:56:58;7.57;;;2.60;;
29200;SDS011;16244;51.956;12.980;2023-12-20T07:59:25;2.43;;;2.23;;
29200;SDS011;16244;51.956;12.980;2023-12-20T08:01:53;9.40;;;1.70;;
29200;SDS011;16244;51.956;12.980;2023-12-20T08:04:20;3.83;;;1.23;;
29200;SDS011;16244;51.956;12.980;2023-12-20T08:06:50;4.43;;;1.13;;
29200;SDS011;16244;51.956;12.980;2023-12-20T08:09:17;0.77;;;0.77;;
29200;SDS011;16244;51.956;12.980;2023-12-20T08:11:45;1.20;;;0.87;;
29200;SDS011;16244;51.956;12.980;2023-12-20T08:14:12;2.20;;;0.80;;
29200;SDS011;16244;51.956;12.980;2023-12-20T08:16:40;2.50;;;0.70;;
29200;SDS011;16244;51.956;12.980;2023-12-20T08:19:07;1.70;;;1.00;;
29200;SDS011;16244;51.956;12.980;2023-12-20T08:21:35;2.43;;;1.00;;
29200;SDS011;16244;51.956;12.980;2023-12-20T08:24:04;3.03;;;0.80;;
29200;SDS011;16244;51.956;12.980;2023-12-20T08:26:32;1.03;;;0.70;;
29200;SDS011;16244;51.956;12.980;2023-12-20T08:28:59;3.33;;;1.07;;
29200;SDS011;16244;51.956;12.980;2023-12-20T08:31:27;2.70;;;0.80;;
29200;SDS011;16244;51.956;12.980;2023-12-20T08:33:55;2.97;;;0.60;;
29200;SDS011;16244;51.956;12.980;2023-12-20T08:36:22;2.80;;;0.70;;
29200;SDS011;16244;51.956;12.980;2023-12-20T08:38:50;3.37;;;1.10;;
29200;SDS011;16244;51.956;12.980;2023-12-20T08:41:19;0.80;;;0.80;;
29200;SDS011;16244;51.956;12.980;2023-12-20T08:43:47;0.73;;;0.73;;
29200;SDS011;16244;51.956;12.980;2023-12-20T08:46:14;1.60;;;0.90;;
29200;SDS011;16244;51.956;12.980;2023-12-20T08:48:42;0.50;;;0.50;;
29200;SDS011;16244;51.956;12.980;2023-12-20T08:51:10;1.37;;;0.50;;
29200;SDS011;16244;51.956;12.980;2023-12-20T08:53:37;1.90;;;0.53;;
29200;SDS011;16244;51.956;12.980;2023-12-20T08:56:05;4.80;;;1.03;;
29200;SDS011;16244;51.956;12.980;2023-12-20T08:58:34;0.60;;;0.60;;
29200;SDS011;16244;51.956;12.980;2023-12-20T09:01:01;1.57;;;0.40;;
29200;SDS011;16244;51.956;12.980;2023-12-20T09:03:29;0.97;;;0.60;;
29200;SDS011;16244;51.956;12.980;2023-12-20T09:05:56;1.53;;;0.50;;
29200;SDS011;16244;51.956;12.980;2023-12-20T09:08:24;0.67;;;0.67;;
29200;SDS011;16244;51.956;12.980;2023-12-20T09:10:52;0.50;;;0.50;;
29200;SDS011;16244;51.956;12.980;2023-12-20T09:13:19;0.60;;;0.60;;
29200;SDS011;16244;51.956;12.980;2023-12-20T09:15:49;0.60;;;0.60;;
29200;SDS011;16244;51.956;12.980;2023-12-20T09:18:16;1.03;;;0.80;;
29200;SDS011;16244;51.956;12.980;2023-12-20T09:20:44;1.53;;;1.43;;
29200;SDS011;16244;51.956;12.980;2023-12-20T09:23:11;1.30;;;0.80;;
29200;SDS011;16244;51.956;12.980;2023-12-20T09:25:39;2.20;;;1.17;;
29200;SDS011;16244;51.956;12.980;2023-12-20T09:28:06;1.37;;;1.37;;
29200;SDS011;16244;51.956;12.980;2023-12-20T09:30:34;8.90;;;1.40;;
29200;SDS011;16244;51.956;12.980;2023-12-20T09:33:07;6.60;;;1.87;;
29200;SDS011;16244;51.956;12.980;2023-12-20T09:35:35;3.13;;;2.30;;
29200;SDS011;16244;51.956;12.980;2023-12-20T09:38:03;1.73;;;1.70;;
29200;SDS011;16244;51.956;12.980;2023-12-20T09:40:31;8.50;;;4.43;;
29200;SDS011;16244;51.956;12.980;2023-12-20T09:43:02;6.23;;;3.50;;
29200;SDS011;16244;51.956;12.980;2023-12-20T09:45:31;6.00;;;3.50;;
29200;SDS011;16244;51.956;12.980;2023-12-20T09:47:59;6.03;;;3.00;;
29200;SDS011;16244;51.956;12.980;2023-12-20T09:50:27;10.20;;;4.60;;
29200;SDS011;16244;51.956;12.980;2023-12-20T09:52:58;5.63;;;3.67;;
29200;SDS011;16244;51.956;12.980;2023-12-20T09:55:30;15.33;;;6.77;;
29200;SDS011;16244;51.956;12.980;2023-12-20T09:57:59;7.10;;;4.10;;
29200;SDS011;16244;51.956;12.980;2023-12-20T10:00:27;1.60;;;1.50;;
29200;SDS011;16244;51.956;12.980;2023-12-20T10:02:56;3.43;;;2.87;;
29200;SDS011;16244;51.956;12.980;2023-12-20T10:05:26;2.80;;;1.10;;
29200;SDS011;16244;51.956;12.980;2023-12-20T10:07:56;0.73;;;0.70;;
29200;SDS011;16244;51.956;12.980;2023-12-20T10:10:25;8.07;;;0.87;;
29200;SDS011;16244;51.956;12.980;2023-12-20T10:13:02;1.70;;;0.70;;
29200;SDS011;16244;51.956;12.980;2023-12-20T10:15:31;0.53;;;0.53;;
29200;SDS011;16244;51.956;12.980;2023-12-20T10:17:59;0.83;;;0.70;;
29200;SDS011;16244;51.956;12.980;2023-12-20T10:20:29;1.87;;;0.90;;
29200;SDS011;16244;51.956;12.980;2023-12-20T10:22:57;1.47;;;0.53;;
29200;SDS011;16244;51.956;12.980;2023-12-20T10:25:25;0.70;;;0.70;;
29200;SDS011;16244;51.956;12.980;2023-12-20T10:28:08;2.20;;;0.60;;
29200;SDS011;16244;51.956;12.980;2023-12-20T10:30:36;7.60;;;0.97;;
29200;SDS011;16244;51.956;12.980;2023-12-20T10:33:05;0.60;;;0.47;;
29200;SDS011;16244;51.956;12.980;2023-12-20T10:35:35;2.20;;;0.60;;
29200;SDS011;16244;51.956;12.980;2023-12-20T10:38:03;0.60;;;0.60;;
29200;SDS011;16244;51.956;12.980;2023-12-20T10:40:34;5.37;;;0.70;;
29200;SDS011;16244;51.956;12.980;2023-12-20T10:43:03;1.50;;;0.80;;
29200;SDS011;16244;51.956;12.980;2023-12-20T10:45:31;1.03;;;0.73;;
29200;SDS011;16244;51.956;12.980;2023-12-20T10:47:59;2.10;;;0.70;;
29200;SDS011;16244;51.956;12.980;2023-12-20T10:50:28;0.50;;;0.50;;
29200;SDS011;16244;51.956;12.980;2023-12-20T10:52:58;1.80;;;0.70;;
29200;SDS011;16244;51.956;12.980;2023-12-20T10:55:25;0.67;;;0.67;;
29200;SDS011;16244;51.956;12.980;2023-12-20T10:57:53;0.57;;;0.57;;
29200;SDS011;16244;51.956;12.980;2023-12-20T11:00:24;3.07;;;0.70;;
29200;SDS011;16244;51.956;12.980;2023-12-20T11:02:52;6.00;;;0.60;;
29200;SDS011;16244;51.956;12.980;2023-12-20T11:05:24;0.60;;;0.50;;
29200;SDS011;16244;51.956;12.980;2023-12-20T11:08:00;1.80;;;0.70;;
29200;SDS011;16244;51.956;12.980;2023-12-20T11:10:35;2.53;;;0.50;;
29200;SDS011;16244;51.956;12.980;2023-12-20T11:13:10;1.80;;;0.70;;
29200;SDS011;16244;51.956;12.980;2023-12-20T11:15:43;0.73;;;0.73;;
29200;SDS011;16244;51.956;12.980;2023-12-20T11:18:12;6.80;;;0.70;;
29200;SDS011;16244;51.956;12.980;2023-12-20T11:20:40;0.93;;;0.70;;
29200;SDS011;16244;51.956;12.980;2023-12-20T11:23:09;0.60;;;0.40;;
29200;SDS011;16244;51.956;12.980;2023-12-20T11:25:45;1.03;;;0.50;;
29200;SDS011;16244;51.956;12.980;2023-12-20T11:28:14;0.60;;;0.40;;
29200;SDS011;16244;51.956;12.980;2023-12-20T11:30:46;5.70;;;0.70;;
29200;SDS011;16244;51.956;12.980;2023-12-20T11:33:14;0.40;;;0.40;;
29200;SDS011;16244;51.956;12.980;2023-12-20T11:35:42;0.60;;;0.60;;
29200;SDS011;16244;51.956;12.980;2023-12-20T11:38:11;0.80;;;0.40;;
29200;SDS011;16244;51.956;12.980;2023-12-20T11:40:41;0.50;;;0.50;;
29200;SDS011;16244;51.956;12.980;2023-12-20T11:43:09;1.67;;;0.70;;
29200;SDS011;16244;51.956;12.980;2023-12-20T11:45:36;0.53;;;0.53;;
29200;SDS011;16244;51.956;12.980;2023-12-20T11:48:04;1.80;;;0.70;;
29200;SDS011;16244;51.956;12.980;2023-12-20T11:50:34;7.33;;;0.70;;
29200;SDS011;16244;51.956;12.980;2023-12-20T11:53:01;4.10;;;1.13;;
29200;SDS011;16244;51.956;12.980;2023-12-20T11:55:30;0.50;;;0.40;;
29200;SDS011;16244;51.956;12.980;2023-12-20T11:57:58;0.87;;;0.73;;
29200;SDS011;16244;51.956;12.980;2023-12-20T12:00:25;4.33;;;0.70;;
29200;SDS011;16244;51.956;12.980;2023-12-20T12:02:56;2.83;;;0.77;;
29200;SDS011;16244;51.956;12.980;2023-12-20T12:05:25;1.00;;;0.70;;
29200;SDS011;16244;51.956;12.980;2023-12-20T12:07:52;0.93;;;0.80;;
29200;SDS011;16244;51.956;12.980;2023-12-20T12:10:20;0.60;;;0.60;;
29200;SDS011;16244;51.956;12.980;2023-12-20T12:12:49;2.50;;;1.30;;
29200;SDS011;16244;51.956;12.980;2023-12-20T12:15:17;1.13;;;0.73;;
29200;SDS011;16244;51.956;12.980;2023-12-20T12:17:52;9.33;;;0.90;;
29200;SDS011;16244;51.956;12.980;2023-12-20T12:20:19;0.57;;;0.57;;
29200;SDS011;16244;51.956;12.980;2023-12-20T12:22:56;0.50;;;0.50;;
29200;SDS011;16244;51.956;12.980;2023-12-20T12:25:25;1.90;;;0.60;;
29200;SDS011;16244;51.956;12.980;2023-12-20T12:27:55;1.80;;;0.50;;
29200;SDS011;16244;51.956;12.980;2023-12-20T12:30:22;5.43;;;1.27;;
29200;SDS011;16244;51.956;12.980;2023-12-20T12:32:50;7.63;;;1.13;;
29200;SDS011;16244;51.956;12.980;2023-12-20T12:35:18;1.17;;;0.70;;
29200;SDS011;16244;51.956;12.980;2023-12-20T12:37:46;1.43;;;0.60;;
29200;SDS011;16244;51.956;12.980;2023-12-20T12:40:14;0.93;;;0.70;;
29200;SDS011;16244;51.956;12.980;2023-12-20T12:42:43;2.30;;;0.83;;
29200;SDS011;16244;51.956;12.980;2023-12-20T12:45:26;1.03;;;0.60;;
29200;SDS011;16244;51.956;12.980;2023-12-20T12:47:54;1.03;;;0.70;;
29200;SDS011;16244;51.956;12.980;2023-12-20T12:50:21;2.00;;;0.60;;
29200;SDS011;16244;51.956;12.980;2023-12-20T12:52:49;1.07;;;0.97;;
29200;SDS011;16244;51.956;12.980;2023-12-20T12:55:16;3.07;;;1.00;;
29200;SDS011;16244;51.956;12.980;2023-12-20T12:57:44;7.17;;;1.00;;
29200;SDS011;16244;51.956;12.980;2023-12-20T13:00:12;0.93;;;0.77;;
29200;SDS011;16244;51.956;12.980;2023-12-20T13:02:41;0.60;;;0.60;;
29200;SDS011;16244;51.956;12.980;2023-12-20T13:05:09;2.20;;;0.77;;
29200;SDS011;16244;51.956;12.980;2023-12-20T13:07:36;1.80;;;0.57;;
29200;SDS011;16244;51.956;12.980;2023-12-20T13:10:05;2.83;;;0.80;;
29200;SDS011;16244;51.956;12.980;2023-12-20T13:12:34;1.73;;;0.70;;
29200;SDS011;16244;51.956;12.980;2023-12-20T13:15:02;1.23;;;0.60;;
29200;SDS011;16244;51.956;12.980;2023-12-20T13:17:30;2.17;;;0.77;;
29200;SDS011;16244;51.956;12.980;2023-12-20T13:19:59;0.87;;;0.70;;
29200;SDS011;16244;51.956;12.980;2023-12-20T13:22:26;1.23;;;0.60;;
29200;SDS011;16244;51.956;12.980;2023-12-20T13:24:55;2.10;;;0.83;;
29200;SDS011;16244;51.956;12.980;2023-12-20T13:27:22;0.50;;;0.50;;
29200;SDS011;16244;51.956;12.980;2023-12-20T13:29:50;0.60;;;0.60;;
29200;SDS011;16244;51.956;12.980;2023-12-20T13:32:17;0.60;;;0.60;;
29200;SDS011;16244;51.956;12.980;2023-12-20T13:34:45;1.17;;;0.67;;
29200;SDS011;16244;51.956;12.980;2023-12-20T13:37:15;1.77;;;0.87;;
29200;SDS011;16244;51.956;12.980;2023-12-20T13:39:42;1.40;;;0.60;;
29200;SDS011;16244;51.956;12.980;2023-12-20T13:42:09;1.27;;;0.60;;
29200;SDS011;16244;51.956;12.980;2023-12-20T13:44:37;3.47;;;0.93;;
29200;SDS011;16244;51.956;12.980;2023-12-20T13:47:04;5.10;;;0.70;;
29200;SDS011;16244;51.956;12.980;2023-12-20T13:49:32;0.90;;;0.70;;
29200;SDS011;16244;51.956;12.980;2023-12-20T13:51:59;1.17;;;0.63;;
29200;SDS011;16244;51.956;12.980;2023-12-20T13:54:28;0.50;;;0.50;;
29200;SDS011;16244;51.956;12.980;2023-12-20T13:56:55;0.80;;;0.80;;
29200;SDS011;16244;51.956;12.980;2023-12-20T13:59:23;0.87;;;0.50;;
29200;SDS011;16244;51.956;12.980;2023-12-20T14:01:52;0.87;;;0.57;;
29200;SDS011;16244;51.956;12.980;2023-12-20T14:04:19;4.83;;;0.50;;
29200;SDS011;16244;51.956;12.980;2023-12-20T14:06:47;4.20;;;0.50;;
29200;SDS011;16244;51.956;12.980;2023-12-20T14:09:15;0.67;;;0.63;;
29200;SDS011;16244;51.956;12.980;2023-12-20T14:11:43;0.50;;;0.50;;
29200;SDS011;16244;51.956;12.980;2023-12-20T14:14:11;0.60;;;0.50;;
29200;SDS011;16244;51.956;12.980;2023-12-20T14:16:39;0.97;;;0.60;;
29200;SDS011;16244;51.956;12.980;2023-12-20T14:19:07;0.60;;;0.60;;
29200;SDS011;16244;51.956;12.980;2023-12-20T14:21:35;0.90;;;0.90;;
29200;SDS011;16244;51.956;12.980;2023-12-20T14:24:03;0.93;;;0.90;;
29200;SDS011;16244;51.956;12.980;2023-12-20T14:26:31;2.63;;;0.70;;
29200;SDS011;16244;51.956;12.980;2023-12-20T14:29:00;0.50;;;0.50;;
29200;SDS011;16244;51.956;12.980;2023-12-20T14:31:27;0.90;;;0.47;;
29200;SDS011;16244;51.956;12.980;2023-12-20T14:33:55;0.50;;;0.50;;
29200;SDS011;16244;51.956;12.980;2023-12-20T14:36:22;0.50;;;0.50;;
29200;SDS011;16244;51.956;12.980;2023-12-20T14:38:49;3.13;;;0.50;;